sensor_id;sensor_type;location;lat;lon;timestamp;pressure;altitude;pressure_sealevel;temperature;humidity
28456;BME280;15682;56.742;38.866;2023-05-16T00:00:41;100280.0;;;9.4;77.4
28456;BME280;15682;56.742;38.866;2023-05-16T00:02:41;100280.0;;;9.4;78.4
28456;BME280;15682;56.742;38.866;2023-05-16T00:04:41;100280.0;;;9.4;78.4
28456;BME280;15682;56.742;38.866;2023-05-16T00:06:41;100280.0;;;9.4;78.8
28456;BME280;15682;56.742;38.866;2023-05-16T00:08:41;100280.0;;;9.4;79.1
28456;BME280;15682;56.742;38.866;2023-05-16T00:10:41;100280.0;;;9.3;79.1
28456;BME280;15682;56.742;38.866;2023-05-16T00:12:41;100280.0;;;9.3;79.1
28456;BME280;15682;56.742;38.866;2023-05-16T00:14:41;100280.0;;;9.5;77.7
28456;BME280;15682;56.742;38.866;2023-05-16T00:16:42;100280.0;;;9.5;77.6
28456;BME280;15682;56.742;38.866;2023-05-16T00:18:42;100280.0;;;9.3;77.6
28456;BME280;15682;56.742;38.866;2023-05-16T00:20:42;100280.0;;;9.3;77.6
28456;BME280;15682;56.742;38.866;2023-05-16T00:22:42;100280.0;;;9.3;78.2
28456;BME280;15682;56.742;38.866;2023-05-16T00:24:42;100280.0;;;9.3;78.2
28456;BME280;15682;56.742;38.866;2023-05-16T00:26:42;100280.0;;;9.2;77.5
28456;BME280;15682;56.742;38.866;2023-05-16T00:28:42;100280.0;;;9.2;77.5
28456;BME280;15682;56.742;38.866;2023-05-16T00:30:42;100280.0;;;9.3;77.0
28456;BME280;15682;56.742;38.866;2023-05-16T00:32:43;100280.0;;;9.3;77.0
28456;BME280;15682;56.742;38.866;2023-05-16T00:34:43;100280.0;;;9.3;77.0
28456;BME280;15682;56.742;38.866;2023-05-16T00:36:43;100280.0;;;9.3;77.1
28456;BME280;15682;56.742;38.866;2023-05-16T00:38:43;100280.0;;;9.3;77.1
28456;BME280;15682;56.742;38.866;2023-05-16T00:40:43;100280.0;;;9.2;77.1
28456;BME280;15682;56.742;38.866;2023-05-16T00:42:43;100280.0;;;9.2;77.1
28456;BME280;15682;56.742;38.866;2023-05-16T00:44:43;100280.0;;;9.2;77.1
28456;BME280;15682;56.742;38.866;2023-05-16T00:46:44;100280.0;;;9.3;77.0
28456;BME280;15682;56.742;38.866;2023-05-16T00:48:44;100280.0;;;9.3;77.0
28456;BME280;15682;56.742;38.866;2023-05-16T00:50:44;100280.0;;;9.3;77.0
28456;BME280;15682;56.742;38.866;2023-05-16T00:52:44;100280.0;;;9.3;77.0
28456;BME280;15682;56.742;38.866;2023-05-16T00:54:44;100280.0;;;9.3;77.6
28456;BME280;15682;56.742;38.866;2023-05-16T00:56:44;100280.0;;;9.3;78.0
28456;BME280;15682;56.742;38.866;2023-05-16T00:58:44;100280.0;;;9.3;78.0
28456;BME280;15682;56.742;38.866;2023-05-16T01:00:45;100280.0;;;9.4;78.0
28456;BME280;15682;56.742;38.866;2023-05-16T01:02:45;100280.0;;;9.4;78.0
28456;BME280;15682;56.742;38.866;2023-05-16T01:04:45;100280.0;;;9.4;78.0
28456;BME280;15682;56.742;38.866;2023-05-16T01:06:45;100280.0;;;9.2;77.8
28456;BME280;15682;56.742;38.866;2023-05-16T01:08:45;100280.0;;;9.2;77.8
28456;BME280;15682;56.742;38.866;2023-05-16T01:10:49;100280.0;;;9.1;77.8
28456;BME280;15682;56.742;38.866;2023-05-16T01:12:52;100280.0;;;9.1;76.9
28456;BME280;15682;56.742;38.866;2023-05-16T01:14:50;100280.0;;;9.1;76.9
28456;BME280;15682;56.742;38.866;2023-05-16T01:16:52;100280.0;;;9.1;76.4
28456;BME280;15682;56.742;38.866;2023-05-16T01:18:52;100280.0;;;9.2;76.4
28456;BME280;15682;56.742;38.866;2023-05-16T01:20:50;100280.0;;;9.3;76.4
28456;BME280;15682;56.742;38.866;2023-05-16T01:22:52;100280.0;;;9.3;76.4
28456;BME280;15682;56.742;38.866;2023-05-16T01:24:59;100280.0;;;9.3;76.4
28456;BME280;15682;56.742;38.866;2023-05-16T01:26:47;100280.0;;;9.3;75.8
28456;BME280;15682;56.742;38.866;2023-05-16T01:28:47;100280.0;;;9.3;76.4
28456;BME280;15682;56.742;38.866;2023-05-16T01:30:46;100280.0;;;9.3;76.4
28456;BME280;15682;56.742;38.866;2023-05-16T01:32:46;100280.0;;;9.5;76.4
28456;BME280;15682;56.742;38.866;2023-05-16T01:34:47;100280.0;;;9.5;76.4
28456;BME280;15682;56.742;38.866;2023-05-16T01:36:51;100280.0;;;9.5;76.2
28456;BME280;15682;56.742;38.866;2023-05-16T01:38:58;100280.0;;;9.5;75.9
28456;BME280;15682;56.742;38.866;2023-05-16T01:40:50;100280.0;;;9.5;75.9
28456;BME280;15682;56.742;38.866;2023-05-16T01:42:49;100280.0;;;9.5;75.9
28456;BME280;15682;56.742;38.866;2023-05-16T01:44:53;100280.0;;;9.5;75.9
28456;BME280;15682;56.742;38.866;2023-05-16T01:46:52;100280.0;;;9.5;75.8
28456;BME280;15682;56.742;38.866;2023-05-16T01:48:53;100280.0;;;9.6;75.8
28456;BME280;15682;56.742;38.866;2023-05-16T01:50:54;100280.0;;;9.6;75.1
28456;BME280;15682;56.742;38.866;2023-05-16T01:52:50;100280.0;;;9.6;75.1
28456;BME280;15682;56.742;38.866;2023-05-16T01:54:52;100280.0;;;9.6;75.0
28456;BME280;15682;56.742;38.866;2023-05-16T01:56:51;100280.0;;;9.7;74.7
28456;BME280;15682;56.742;38.866;2023-05-16T01:58:49;100280.0;;;9.7;74.7
28456;BME280;15682;56.742;38.866;2023-05-16T02:00:48;100280.0;;;9.7;75.3
28456;BME280;15682;56.742;38.866;2023-05-16T02:02:48;100280.0;;;9.7;74.5
28456;BME280;15682;56.742;38.866;2023-05-16T02:04:49;100280.0;;;9.7;75.7
28456;BME280;15682;56.742;38.866;2023-05-16T02:06:49;100280.0;;;9.7;75.3
28456;BME280;15682;56.742;38.866;2023-05-16T02:08:49;100280.0;;;9.7;74.5
28456;BME280;15682;56.742;38.866;2023-05-16T02:10:49;100280.0;;;9.8;75.6
28456;BME280;15682;56.742;38.866;2023-05-16T02:12:50;100280.0;;;9.8;73.9
28456;BME280;15682;56.742;38.866;2023-05-16T02:14:49;100280.0;;;9.8;73.2
28456;BME280;15682;56.742;38.866;2023-05-16T02:16:49;100280.0;;;9.8;73.3
28456;BME280;15682;56.742;38.866;2023-05-16T02:18:49;100280.0;;;9.8;73.3
28456;BME280;15682;56.742;38.866;2023-05-16T02:20:50;100280.0;;;9.9;73.3
28456;BME280;15682;56.742;38.866;2023-05-16T02:22:50;100280.0;;;9.9;72.5
28456;BME280;15682;56.742;38.866;2023-05-16T02:24:50;100280.0;;;9.9;72.5
28456;BME280;15682;56.742;38.866;2023-05-16T02:26:50;100280.0;;;9.9;72.5
28456;BME280;15682;56.742;38.866;2023-05-16T02:28:50;100280.0;;;9.9;72.3
28456;BME280;15682;56.742;38.866;2023-05-16T02:30:55;100280.0;;;10.1;71.7
28456;BME280;15682;56.742;38.866;2023-05-16T02:32:50;100280.0;;;10.1;71.0
28456;BME280;15682;56.742;38.866;2023-05-16T02:34:51;100280.0;;;10.1;70.3
28456;BME280;15682;56.742;38.866;2023-05-16T02:36:51;100280.0;;;10.2;70.9
28456;BME280;15682;56.742;38.866;2023-05-16T02:38:51;100280.0;;;10.2;69.8
28456;BME280;15682;56.742;38.866;2023-05-16T02:40:51;100280.0;;;10.3;69.8
28456;BME280;15682;56.742;38.866;2023-05-16T02:42:51;100280.0;;;10.3;69.8
28456;BME280;15682;56.742;38.866;2023-05-16T02:44:51;100280.0;;;10.3;69.8
28456;BME280;15682;56.742;38.866;2023-05-16T02:46:52;100280.0;;;10.5;70.1
28456;BME280;15682;56.742;38.866;2023-05-16T02:48:52;100280.0;;;10.5;69.1
28456;BME280;15682;56.742;38.866;2023-05-16T02:50:52;100280.0;;;10.5;68.6
28456;BME280;15682;56.742;38.866;2023-05-16T02:52:52;100280.0;;;10.6;68.6
28456;BME280;15682;56.742;38.866;2023-05-16T02:54:52;100280.0;;;10.6;69.3
28456;BME280;15682;56.742;38.866;2023-05-16T02:56:53;100280.0;;;10.6;69.3
28456;BME280;15682;56.742;38.866;2023-05-16T02:58:54;100280.0;;;10.6;69.9
28456;BME280;15682;56.742;38.866;2023-05-16T03:00:53;100280.0;;;10.7;69.9
28456;BME280;15682;56.742;38.866;2023-05-16T03:02:53;100280.0;;;10.8;70.7
28456;BME280;15682;56.742;38.866;2023-05-16T03:04:53;100280.0;;;10.8;68.5
28456;BME280;15682;56.742;38.866;2023-05-16T03:06:54;100280.0;;;10.9;69.1
28456;BME280;15682;56.742;38.866;2023-05-16T03:08:54;100280.0;;;10.9;69.1
28456;BME280;15682;56.742;38.866;2023-05-16T03:10:54;100280.0;;;11.0;69.1
28456;BME280;15682;56.742;38.866;2023-05-16T03:12:54;100280.0;;;11.0;68.6
28456;BME280;15682;56.742;38.866;2023-05-16T03:14:55;100280.0;;;11.1;67.7
28456;BME280;15682;56.742;38.866;2023-05-16T03:16:55;100280.0;;;11.1;68.1
28456;BME280;15682;56.742;38.866;2023-05-16T03:18:55;100280.0;;;11.1;67.4
28456;BME280;15682;56.742;38.866;2023-05-16T03:20:55;100280.0;;;11.0;66.5
28456;BME280;15682;56.742;38.866;2023-05-16T03:22:55;100280.0;;;11.0;67.0
28456;BME280;15682;56.742;38.866;2023-05-16T03:24:56;100290.0;;;10.8;68.9
28456;BME280;15682;56.742;38.866;2023-05-16T03:26:56;100290.0;;;10.6;69.4
28456;BME280;15682;56.742;38.866;2023-05-16T03:28:56;100290.0;;;10.5;69.8
28456;BME280;15682;56.742;38.866;2023-05-16T03:30:56;100290.0;;;10.5;70.4
28456;BME280;15682;56.742;38.866;2023-05-16T03:32:57;100300.0;;;10.5;69.7
28456;BME280;15682;56.742;38.866;2023-05-16T03:34:57;100300.0;;;10.5;69.7
28456;BME280;15682;56.742;38.866;2023-05-16T03:36:57;100300.0;;;10.6;70.4
28456;BME280;15682;56.742;38.866;2023-05-16T03:38:57;100300.0;;;10.6;70.3
28456;BME280;15682;56.742;38.866;2023-05-16T03:40:57;100300.0;;;10.7;70.3
28456;BME280;15682;56.742;38.866;2023-05-16T03:42:58;100300.0;;;10.9;69.8
28456;BME280;15682;56.742;38.866;2023-05-16T03:44:58;100300.0;;;11.0;68.3
28456;BME280;15682;56.742;38.866;2023-05-16T03:46:59;100300.0;;;11.2;68.3
28456;BME280;15682;56.742;38.866;2023-05-16T03:48:59;100300.0;;;11.2;68.3
28456;BME280;15682;56.742;38.866;2023-05-16T03:50:59;100300.0;;;11.4;68.3
28456;BME280;15682;56.742;38.866;2023-05-16T03:52:59;100300.0;;;11.5;68.3
28456;BME280;15682;56.742;38.866;2023-05-16T03:55:00;100300.0;;;11.7;66.4
28456;BME280;15682;56.742;38.866;2023-05-16T03:57:00;100300.0;;;11.7;67.0
28456;BME280;15682;56.742;38.866;2023-05-16T03:59:01;100300.0;;;11.8;66.3
28456;BME280;15682;56.742;38.866;2023-05-16T04:01:01;100300.0;;;12.0;66.3
28456;BME280;15682;56.742;38.866;2023-05-16T04:07:03;100300.0;;;12.3;66.1
28456;BME280;15682;56.742;38.866;2023-05-16T04:09:03;100300.0;;;12.4;66.1
28456;BME280;15682;56.742;38.866;2023-05-16T04:17:05;100310.0;;;12.7;65.6
28456;BME280;15682;56.742;38.866;2023-05-16T04:19:05;100310.0;;;12.8;63.4
28456;BME280;15682;56.742;38.866;2023-05-16T04:21:06;100310.0;;;12.8;63.4
28456;BME280;15682;56.742;38.866;2023-05-16T04:23:06;100310.0;;;12.9;63.4
28456;BME280;15682;56.742;38.866;2023-05-16T04:25:07;100310.0;;;13.1;62.5
28456;BME280;15682;56.742;38.866;2023-05-16T04:27:07;100310.0;;;13.2;61.9
28456;BME280;15682;56.742;38.866;2023-05-16T04:29:08;100310.0;;;13.4;61.3
28456;BME280;15682;56.742;38.866;2023-05-16T04:31:08;100310.0;;;13.4;61.3
28456;BME280;15682;56.742;38.866;2023-05-16T04:33:09;100310.0;;;13.4;61.3
28456;BME280;15682;56.742;38.866;2023-05-16T04:35:10;100310.0;;;13.6;60.3
28456;BME280;15682;56.742;38.866;2023-05-16T04:37:10;100310.0;;;13.8;60.3
28456;BME280;15682;56.742;38.866;2023-05-16T04:39:11;100310.0;;;13.9;58.7
28456;BME280;15682;56.742;38.866;2023-05-16T04:41:11;100310.0;;;13.9;59.7
28456;BME280;15682;56.742;38.866;2023-05-16T04:43:12;100310.0;;;14.0;59.7
28456;BME280;15682;56.742;38.866;2023-05-16T04:45:12;100310.0;;;14.2;58.0
28456;BME280;15682;56.742;38.866;2023-05-16T04:47:13;100310.0;;;14.2;58.9
28456;BME280;15682;56.742;38.866;2023-05-16T04:49:14;100310.0;;;14.4;58.9
28456;BME280;15682;56.742;38.866;2023-05-16T04:51:14;100310.0;;;14.4;58.0
28456;BME280;15682;56.742;38.866;2023-05-16T04:53:16;100310.0;;;14.7;57.4
28456;BME280;15682;56.742;38.866;2023-05-16T04:55:16;100310.0;;;14.8;57.4
28456;BME280;15682;56.742;38.866;2023-05-16T04:57:16;100310.0;;;14.9;57.5
28456;BME280;15682;56.742;38.866;2023-05-16T04:59:17;100310.0;;;15.0;55.9
28456;BME280;15682;56.742;38.866;2023-05-16T05:01:18;100310.0;;;15.2;55.9
28456;BME280;15682;56.742;38.866;2023-05-16T05:03:18;100310.0;;;15.4;56.0
28456;BME280;15682;56.742;38.866;2023-05-16T05:05:19;100310.0;;;15.4;54.5
28456;BME280;15682;56.742;38.866;2023-05-16T05:07:20;100310.0;;;15.5;54.2
28456;BME280;15682;56.742;38.866;2023-05-16T05:09:20;100320.0;;;15.6;53.6
28456;BME280;15682;56.742;38.866;2023-05-16T05:11:21;100320.0;;;15.7;53.6
28456;BME280;15682;56.742;38.866;2023-05-16T05:13:22;100320.0;;;15.8;53.1
28456;BME280;15682;56.742;38.866;2023-05-16T05:15:22;100320.0;;;16.0;52.9
28456;BME280;15682;56.742;38.866;2023-05-16T05:17:23;100320.0;;;15.8;52.9
28456;BME280;15682;56.742;38.866;2023-05-16T05:19:24;100320.0;;;15.9;52.1
28456;BME280;15682;56.742;38.866;2023-05-16T05:21:24;100320.0;;;15.9;52.1
28456;BME280;15682;56.742;38.866;2023-05-16T05:23:25;100320.0;;;16.0;51.4
28456;BME280;15682;56.742;38.866;2023-05-16T05:25:26;100320.0;;;16.0;50.4
28456;BME280;15682;56.742;38.866;2023-05-16T05:27:26;100320.0;;;16.0;51.9
28456;BME280;15682;56.742;38.866;2023-05-16T05:29:27;100320.0;;;16.1;51.9
28456;BME280;15682;56.742;38.866;2023-05-16T05:31:28;100320.0;;;16.3;51.3
28456;BME280;15682;56.742;38.866;2023-05-16T05:33:29;100320.0;;;16.4;51.3
28456;BME280;15682;56.742;38.866;2023-05-16T05:35:29;100320.0;;;16.5;50.5
28456;BME280;15682;56.742;38.866;2023-05-16T05:37:30;100320.0;;;16.7;49.9
28456;BME280;15682;56.742;38.866;2023-05-16T05:39:31;100320.0;;;16.8;49.8
28456;BME280;15682;56.742;38.866;2023-05-16T05:41:31;100320.0;;;16.8;48.5
28456;BME280;15682;56.742;38.866;2023-05-16T05:43:32;100320.0;;;16.8;48.5
28456;BME280;15682;56.742;38.866;2023-05-16T05:45:33;100320.0;;;16.8;49.2
28456;BME280;15682;56.742;38.866;2023-05-16T05:47:34;100320.0;;;16.9;48.2
28456;BME280;15682;56.742;38.866;2023-05-16T05:49:34;100320.0;;;17.1;48.8
28456;BME280;15682;56.742;38.866;2023-05-16T05:51:35;100320.0;;;17.2;47.8
28456;BME280;15682;56.742;38.866;2023-05-16T05:53:36;100320.0;;;17.4;47.8
28456;BME280;15682;56.742;38.866;2023-05-16T05:55:36;100320.0;;;17.4;46.8
28456;BME280;15682;56.742;38.866;2023-05-16T05:57:37;100320.0;;;17.4;46.9
28456;BME280;15682;56.742;38.866;2023-05-16T05:59:38;100320.0;;;17.4;46.9
28456;BME280;15682;56.742;38.866;2023-05-16T06:01:39;100320.0;;;17.4;46.1
28456;BME280;15682;56.742;38.866;2023-05-16T06:03:39;100320.0;;;17.5;47.9
28456;BME280;15682;56.742;38.866;2023-05-16T06:05:40;100320.0;;;17.7;44.3
28456;BME280;15682;56.742;38.866;2023-05-16T06:07:41;100320.0;;;17.8;45.5
28456;BME280;15682;56.742;38.866;2023-05-16T06:09:42;100320.0;;;17.8;46.1
28456;BME280;15682;56.742;38.866;2023-05-16T06:11:42;100320.0;;;17.8;44.6
28456;BME280;15682;56.742;38.866;2023-05-16T06:13:43;100320.0;;;17.9;44.6
28456;BME280;15682;56.742;38.866;2023-05-16T06:15:49;100320.0;;;17.9;46.2
28456;BME280;15682;56.742;38.866;2023-05-16T06:17:45;100320.0;;;18.0;44.9
28456;BME280;15682;56.742;38.866;2023-05-16T06:19:46;100320.0;;;18.1;43.6
28456;BME280;15682;56.742;38.866;2023-05-16T06:21:46;100320.0;;;18.1;42.8
28456;BME280;15682;56.742;38.866;2023-05-16T06:23:47;100320.0;;;18.3;44.3
28456;BME280;15682;56.742;38.866;2023-05-16T06:25:49;100320.0;;;18.3;43.9
28456;BME280;15682;56.742;38.866;2023-05-16T06:27:49;100320.0;;;18.3;42.0
28456;BME280;15682;56.742;38.866;2023-05-16T06:29:50;100320.0;;;18.4;41.4
28456;BME280;15682;56.742;38.866;2023-05-16T06:31:50;100320.0;;;18.5;42.0
28456;BME280;15682;56.742;38.866;2023-05-16T06:33:51;100320.0;;;18.5;40.8
28456;BME280;15682;56.742;38.866;2023-05-16T06:35:52;100320.0;;;18.5;41.9
28456;BME280;15682;56.742;38.866;2023-05-16T06:37:53;100320.0;;;18.5;40.1
28456;BME280;15682;56.742;38.866;2023-05-16T06:39:53;100320.0;;;18.6;40.2
28456;BME280;15682;56.742;38.866;2023-05-16T06:41:54;100320.0;;;18.7;40.2
28456;BME280;15682;56.742;38.866;2023-05-16T06:43:55;100320.0;;;18.7;40.5
28456;BME280;15682;56.742;38.866;2023-05-16T06:45:56;100320.0;;;18.8;37.7
28456;BME280;15682;56.742;38.866;2023-05-16T06:47:57;100330.0;;;18.8;40.2
28456;BME280;15682;56.742;38.866;2023-05-16T06:49:57;100330.0;;;18.7;40.9
28456;BME280;15682;56.742;38.866;2023-05-16T06:51:58;100330.0;;;18.9;39.3
28456;BME280;15682;56.742;38.866;2023-05-16T06:53:59;100330.0;;;19.0;40.3
28456;BME280;15682;56.742;38.866;2023-05-16T06:56:00;100330.0;;;19.0;37.5
28456;BME280;15682;56.742;38.866;2023-05-16T06:58:00;100330.0;;;19.0;37.7
28456;BME280;15682;56.742;38.866;2023-05-16T07:00:01;100330.0;;;18.9;39.0
28456;BME280;15682;56.742;38.866;2023-05-16T07:02:02;100340.0;;;18.9;38.3
28456;BME280;15682;56.742;38.866;2023-05-16T07:04:03;100340.0;;;19.0;38.3
28456;BME280;15682;56.742;38.866;2023-05-16T07:06:03;100340.0;;;19.0;38.4
28456;BME280;15682;56.742;38.866;2023-05-16T07:08:04;100340.0;;;19.0;37.6
28456;BME280;15682;56.742;38.866;2023-05-16T07:10:05;100340.0;;;19.1;37.1
28456;BME280;15682;56.742;38.866;2023-05-16T07:12:06;100330.0;;;19.2;37.8
28456;BME280;15682;56.742;38.866;2023-05-16T07:14:06;100330.0;;;19.1;37.3
28456;BME280;15682;56.742;38.866;2023-05-16T07:16:07;100330.0;;;19.1;37.1
28456;BME280;15682;56.742;38.866;2023-05-16T07:18:08;100340.0;;;19.1;38.2
28456;BME280;15682;56.742;38.866;2023-05-16T07:20:09;100340.0;;;19.0;39.9
28456;BME280;15682;56.742;38.866;2023-05-16T07:22:09;100340.0;;;19.0;36.7
28456;BME280;15682;56.742;38.866;2023-05-16T07:24:10;100340.0;;;19.0;35.4
28456;BME280;15682;56.742;38.866;2023-05-16T07:26:10;100340.0;;;19.0;38.3
28456;BME280;15682;56.742;38.866;2023-05-16T07:28:11;100340.0;;;19.0;39.1
28456;BME280;15682;56.742;38.866;2023-05-16T07:30:13;100340.0;;;19.1;37.6
28456;BME280;15682;56.742;38.866;2023-05-16T07:32:12;100340.0;;;19.2;37.1
28456;BME280;15682;56.742;38.866;2023-05-16T07:34:13;100340.0;;;19.2;38.6
28456;BME280;15682;56.742;38.866;2023-05-16T07:36:14;100340.0;;;19.4;37.9
28456;BME280;15682;56.742;38.866;2023-05-16T07:38:14;100340.0;;;19.5;37.9
28456;BME280;15682;56.742;38.866;2023-05-16T07:40:15;100340.0;;;19.6;37.7
28456;BME280;15682;56.742;38.866;2023-05-16T07:42:15;100340.0;;;19.8;36.7
28456;BME280;15682;56.742;38.866;2023-05-16T07:44:16;100340.0;;;19.9;36.7
28456;BME280;15682;56.742;38.866;2023-05-16T07:46:16;100340.0;;;20.1;36.3
28456;BME280;15682;56.742;38.866;2023-05-16T07:48:17;100340.0;;;19.9;35.4
28456;BME280;15682;56.742;38.866;2023-05-16T07:50:17;100340.0;;;19.9;35.9
28456;BME280;15682;56.742;38.866;2023-05-16T07:52:18;100340.0;;;19.6;35.5
28456;BME280;15682;56.742;38.866;2023-05-16T07:54:18;100340.0;;;19.8;35.1
28456;BME280;15682;56.742;38.866;2023-05-16T07:56:19;100340.0;;;19.8;34.6
28456;BME280;15682;56.742;38.866;2023-05-16T07:58:19;100340.0;;;19.8;35.5
28456;BME280;15682;56.742;38.866;2023-05-16T08:00:20;100330.0;;;19.8;34.9
28456;BME280;15682;56.742;38.866;2023-05-16T08:02:21;100330.0;;;19.6;34.9
28456;BME280;15682;56.742;38.866;2023-05-16T08:04:21;100330.0;;;19.8;34.9
28456;BME280;15682;56.742;38.866;2023-05-16T08:06:21;100330.0;;;20.2;34.9
28456;BME280;15682;56.742;38.866;2023-05-16T08:08:22;100330.0;;;20.4;33.8
28456;BME280;15682;56.742;38.866;2023-05-16T08:10:22;100330.0;;;20.4;34.9
28456;BME280;15682;56.742;38.866;2023-05-16T08:12:23;100330.0;;;20.6;34.3
28456;BME280;15682;56.742;38.866;2023-05-16T08:14:23;100340.0;;;20.6;33.8
28456;BME280;15682;56.742;38.866;2023-05-16T08:16:23;100340.0;;;20.6;34.1
28456;BME280;15682;56.742;38.866;2023-05-16T08:18:24;100340.0;;;20.5;33.3
28456;BME280;15682;56.742;38.866;2023-05-16T08:20:24;100340.0;;;20.7;34.3
28456;BME280;15682;56.742;38.866;2023-05-16T08:22:25;100340.0;;;20.4;34.3
28456;BME280;15682;56.742;38.866;2023-05-16T08:24:25;100340.0;;;20.6;33.6
28456;BME280;15682;56.742;38.866;2023-05-16T08:26:26;100340.0;;;20.8;33.5
28456;BME280;15682;56.742;38.866;2023-05-16T08:28:26;100320.0;;;20.7;33.9
28456;BME280;15682;56.742;38.866;2023-05-16T08:30:27;100320.0;;;20.9;32.8
28456;BME280;15682;56.742;38.866;2023-05-16T08:32:27;100320.0;;;20.8;33.6
28456;BME280;15682;56.742;38.866;2023-05-16T08:34:29;100320.0;;;21.0;33.6
28456;BME280;15682;56.742;38.866;2023-05-16T08:36:28;100320.0;;;21.2;33.6
28456;BME280;15682;56.742;38.866;2023-05-16T08:38:29;100320.0;;;21.2;33.7
28456;BME280;15682;56.742;38.866;2023-05-16T08:40:29;100330.0;;;21.5;33.7
28456;BME280;15682;56.742;38.866;2023-05-16T08:42:29;100330.0;;;21.6;33.7
28456;BME280;15682;56.742;38.866;2023-05-16T08:44:30;100330.0;;;21.7;33.7
28456;BME280;15682;56.742;38.866;2023-05-16T08:46:32;100320.0;;;21.8;33.7
28456;BME280;15682;56.742;38.866;2023-05-16T08:48:32;100320.0;;;21.7;32.8
28456;BME280;15682;56.742;38.866;2023-05-16T08:50:32;100320.0;;;21.7;33.4
28456;BME280;15682;56.742;38.866;2023-05-16T08:52:32;100320.0;;;22.1;34.7
28456;BME280;15682;56.742;38.866;2023-05-16T08:54:33;100320.0;;;22.1;34.7
28456;BME280;15682;56.742;38.866;2023-05-16T08:56:33;100320.0;;;22.3;34.2
28456;BME280;15682;56.742;38.866;2023-05-16T08:58:33;100320.0;;;22.2;34.2
28456;BME280;15682;56.742;38.866;2023-05-16T09:00:34;100320.0;;;22.3;34.2
28456;BME280;15682;56.742;38.866;2023-05-16T09:02:34;100310.0;;;22.2;34.2
28456;BME280;15682;56.742;38.866;2023-05-16T09:06:35;100300.0;;;22.0;35.0
28456;BME280;15682;56.742;38.866;2023-05-16T09:08:36;100290.0;;;22.2;35.0
28456;BME280;15682;56.742;38.866;2023-05-16T09:10:36;100290.0;;;22.2;34.5
28456;BME280;15682;56.742;38.866;2023-05-16T09:12:37;100290.0;;;21.7;34.8
28456;BME280;15682;56.742;38.866;2023-05-16T09:14:37;100290.0;;;21.0;35.4
28456;BME280;15682;56.742;38.866;2023-05-16T09:16:38;100290.0;;;21.1;36.0
28456;BME280;15682;56.742;38.866;2023-05-16T09:18:38;100290.0;;;21.4;35.3
28456;BME280;15682;56.742;38.866;2023-05-16T09:20:42;100290.0;;;21.8;34.8
28456;BME280;15682;56.742;38.866;2023-05-16T09:22:39;100290.0;;;22.1;35.6
28456;BME280;15682;56.742;38.866;2023-05-16T09:24:39;100290.0;;;22.1;36.2
28456;BME280;15682;56.742;38.866;2023-05-16T09:26:39;100290.0;;;21.9;36.2
28456;BME280;15682;56.742;38.866;2023-05-16T09:28:40;100290.0;;;21.9;35.5
28456;BME280;15682;56.742;38.866;2023-05-16T09:30:40;100280.0;;;21.8;36.7
28456;BME280;15682;56.742;38.866;2023-05-16T09:32:42;100280.0;;;21.8;36.8
28456;BME280;15682;56.742;38.866;2023-05-16T09:34:43;100280.0;;;21.7;36.8
28456;BME280;15682;56.742;38.866;2023-05-16T09:36:42;100280.0;;;21.6;37.0
28456;BME280;15682;56.742;38.866;2023-05-16T09:38:42;100280.0;;;21.8;37.6
28456;BME280;15682;56.742;38.866;2023-05-16T09:40:43;100280.0;;;21.8;37.4
28456;BME280;15682;56.742;38.866;2023-05-16T09:42:43;100280.0;;;21.8;37.0
28456;BME280;15682;56.742;38.866;2023-05-16T09:44:45;100280.0;;;21.5;37.0
28456;BME280;15682;56.742;38.866;2023-05-16T09:46:44;100280.0;;;21.6;37.9
28456;BME280;15682;56.742;38.866;2023-05-16T09:48:44;100280.0;;;21.7;38.5
28456;BME280;15682;56.742;38.866;2023-05-16T09:50:47;100280.0;;;21.6;37.7
28456;BME280;15682;56.742;38.866;2023-05-16T09:52:45;100280.0;;;21.6;38.5
28456;BME280;15682;56.742;38.866;2023-05-16T09:54:46;100270.0;;;21.6;37.8
28456;BME280;15682;56.742;38.866;2023-05-16T09:56:50;100270.0;;;21.3;38.7
28456;BME280;15682;56.742;38.866;2023-05-16T09:58:46;100270.0;;;21.3;37.6
28456;BME280;15682;56.742;38.866;2023-05-16T10:00:47;100270.0;;;21.3;37.6
28456;BME280;15682;56.742;38.866;2023-05-16T10:02:48;100260.0;;;21.3;38.5
28456;BME280;15682;56.742;38.866;2023-05-16T10:04:47;100260.0;;;21.3;38.4
28456;BME280;15682;56.742;38.866;2023-05-16T10:06:49;100270.0;;;21.2;38.4
28456;BME280;15682;56.742;38.866;2023-05-16T10:08:48;100260.0;;;21.5;38.4
28456;BME280;15682;56.742;38.866;2023-05-16T10:10:51;100260.0;;;21.3;39.0
28456;BME280;15682;56.742;38.866;2023-05-16T10:12:50;100260.0;;;21.4;40.2
28456;BME280;15682;56.742;38.866;2023-05-16T10:14:49;100260.0;;;21.4;38.4
28456;BME280;15682;56.742;38.866;2023-05-16T10:16:50;100260.0;;;21.3;39.4
28456;BME280;15682;56.742;38.866;2023-05-16T10:18:51;100260.0;;;21.4;39.4
28456;BME280;15682;56.742;38.866;2023-05-16T10:20:52;100260.0;;;21.2;39.4
28456;BME280;15682;56.742;38.866;2023-05-16T10:22:54;100260.0;;;21.0;39.4
28456;BME280;15682;56.742;38.866;2023-05-16T10:24:57;100260.0;;;21.0;39.4
28456;BME280;15682;56.742;38.866;2023-05-16T10:26:52;100260.0;;;21.3;40.1
28456;BME280;15682;56.742;38.866;2023-05-16T10:28:53;100250.0;;;21.1;39.5
28456;BME280;15682;56.742;38.866;2023-05-16T10:30:53;100250.0;;;21.0;39.5
28456;BME280;15682;56.742;38.866;2023-05-16T10:32:54;100250.0;;;21.3;41.3
28456;BME280;15682;56.742;38.866;2023-05-16T10:34:54;100250.0;;;21.3;40.1
28456;BME280;15682;56.742;38.866;2023-05-16T10:36:54;100240.0;;;21.1;40.4
28456;BME280;15682;56.742;38.866;2023-05-16T10:38:54;100240.0;;;21.1;39.5
28456;BME280;15682;56.742;38.866;2023-05-16T10:40:55;100240.0;;;21.0;39.5
28456;BME280;15682;56.742;38.866;2023-05-16T10:42:56;100240.0;;;20.9;39.5
28456;BME280;15682;56.742;38.866;2023-05-16T10:45:08;100240.0;;;21.0;39.5
28456;BME280;15682;56.742;38.866;2023-05-16T10:46:57;100240.0;;;21.1;39.7
28456;BME280;15682;56.742;38.866;2023-05-16T10:48:56;100240.0;;;21.1;39.7
28456;BME280;15682;56.742;38.866;2023-05-16T10:50:57;100240.0;;;21.2;40.0
28456;BME280;15682;56.742;38.866;2023-05-16T10:53:11;100240.0;;;21.0;40.0
28456;BME280;15682;56.742;38.866;2023-05-16T10:55:01;100240.0;;;21.0;39.5
28456;BME280;15682;56.742;38.866;2023-05-16T10:57:03;100240.0;;;21.1;39.5
28456;BME280;15682;56.742;38.866;2023-05-16T10:58:58;100230.0;;;21.4;40.1